Time;durP1;ratioP1;P1;durP2;ratioP2;P2;SDS_P1;SDS_P2;PMS_P1;PMS_P2;Temp;Humidity;BMP_temperature;BMP_pressure;BME280_temperature;BME280_humidity;BME280_pressure;Samples;Min_cycle;Max_cycle;Signal;HPM_P1;HPM_P2
2022/12/18 05:01:24;;;;;;;21.20;6.78;;;-1.90;93.30;;;;;;6010957;23;88906;31
2022/12/18 05:03:51;;;;;;;17.45;6.30;;;-1.90;93.10;;;;;;4884587;28;87426;-69
2022/12/18 05:06:17;;;;;;;19.30;6.47;;;-1.90;93.40;;;;;;4886465;28;88553;-69
2022/12/18 05:08:43;;;;;;;21.00;6.82;;;-1.80;93.20;;;;;;4888783;28;88942;-69
2022/12/18 05:11:13;;;;;;;18.30;7.13;;;-1.80;93.40;;;;;;4887326;28;88482;-69
2022/12/18 05:13:39;;;;;;;24.30;7.38;;;-1.80;93.20;;;;;;4891891;28;87139;-70
2022/12/18 05:16:05;;;;;;;27.10;7.85;;;-1.80;93.20;;;;;;4894353;28;86966;-70
2022/12/18 05:18:31;;;;;;;26.33;8.02;;;-1.90;93.40;;;;;;4887750;28;87131;-69
2022/12/18 05:20:57;;;;;;;23.02;8.15;;;-1.90;93.50;;;;;;4883026;28;88180;-70
2022/12/18 05:23:24;;;;;;;29.33;8.75;;;-2.00;93.70;;;;;;4889728;28;87453;-69
2022/12/18 05:25:54;;;;;;;29.63;8.57;;;-2.10;93.90;;;;;;4894165;28;86746;-70
2022/12/18 05:28:20;;;;;;;27.60;8.70;;;-2.10;94.30;;;;;;4890012;28;86980;-69
2022/12/18 05:30:50;;;;;;;31.23;9.90;;;-2.10;94.50;;;;;;4891498;28;87151;-70
2022/12/18 05:33:17;;;;;;;25.88;8.68;;;-2.00;94.50;;;;;;4889695;28;86898;-70
2022/12/18 05:35:43;;;;;;;25.35;8.57;;;-2.00;94.60;;;;;;4891368;28;86678;-70
2022/12/18 05:38:09;;;;;;;32.08;9.43;;;-2.00;94.40;;;;;;4889042;28;86139;-69
2022/12/18 05:40:34;;;;;;;26.65;8.80;;;-1.90;94.50;;;;;;4897863;28;87017;-70
2022/12/18 05:43:00;;;;;;;25.58;8.75;;;-1.90;94.40;;;;;;4893459;28;86864;-70
2022/12/18 05:45:26;;;;;;;28.63;8.90;;;-1.90;94.50;;;;;;4888447;28;87671;-70
2022/12/18 05:47:51;;;;;;;27.17;8.88;;;-2.00;94.30;;;;;;4891249;28;86763;-70
2022/12/18 05:50:17;;;;;;;29.83;9.48;;;-1.90;94.40;;;;;;4898092;28;87275;-70
2022/12/18 05:52:42;;;;;;;26.00;7.80;;;-1.80;94.30;;;;;;4892829;28;87914;-69
2022/12/18 05:55:08;;;;;;;24.65;8.07;;;-1.90;94.20;;;;;;4892795;28;86921;-70
2022/12/18 05:57:34;;;;;;;27.33;8.55;;;-1.80;94.40;;;;;;4889608;28;87764;-70
2022/12/18 05:59:59;;;;;;;30.98;9.00;;;-1.80;94.30;;;;;;4896363;28;87362;-70
2022/12/18 06:02:25;;;;;;;27.38;8.15;;;-1.70;94.20;;;;;;4903494;28;87430;-69
2022/12/18 06:04:51;;;;;;;24.85;8.52;;;-1.70;94.10;;;;;;4909019;28;87094;-68
2022/12/18 06:07:17;;;;;;;27.13;8.00;;;-1.60;93.70;;;;;;4910804;28;86875;-70
2022/12/18 06:09:43;;;;;;;24.95;8.80;;;-1.60;93.90;;;;;;4908928;28;88701;-71
2022/12/18 06:12:09;;;;;;;23.35;7.70;;;-1.60;93.80;;;;;;4906549;28;87209;-69
2022/12/18 06:14:34;;;;;;;28.75;8.50;;;-1.50;93.70;;;;;;4912714;28;86936;-69
2022/12/18 06:17:00;;;;;;;23.25;7.82;;;-1.60;93.30;;;;;;4916929;28;86677;-69
2022/12/18 06:19:26;;;;;;;23.92;7.43;;;-1.60;93.80;;;;;;4911901;28;86797;-69
2022/12/18 06:21:51;;;;;;;26.38;8.50;;;-1.60;93.50;;;;;;4914488;28;86830;-69
2022/12/18 06:24:17;;;;;;;22.33;7.22;;;-1.70;93.30;;;;;;4911982;28;86340;-69
2022/12/18 06:26:43;;;;;;;24.33;7.80;;;-1.70;93.50;;;;;;4913509;28;86002;-69
2022/12/18 06:29:08;;;;;;;26.38;7.57;;;-1.70;93.40;;;;;;4909916;28;87250;-70
2022/12/18 06:31:34;;;;;;;20.00;6.85;;;-1.60;93.40;;;;;;4908860;28;87096;-70
2022/12/18 06:34:02;;;;;;;24.38;7.47;;;-1.60;93.30;;;;;;4906831;28;87918;-69
2022/12/18 06:36:29;;;;;;;24.15;7.30;;;-1.60;93.00;;;;;;4911440;28;86824;-69
2022/12/18 06:38:57;;;;;;;23.33;7.07;;;-1.70;92.90;;;;;;4909406;28;87182;-68
2022/12/18 06:41:22;;;;;;;23.15;7.63;;;-1.80;93.10;;;;;;4910228;28;87962;-69
2022/12/18 06:43:48;;;;;;;23.58;7.03;;;-1.90;93.50;;;;;;4911758;28;86653;-69
2022/12/18 06:46:14;;;;;;;22.75;7.32;;;-2.00;93.60;;;;;;4906940;28;86366;-69
2022/12/18 06:48:40;;;;;;;25.65;7.93;;;-2.00;93.80;;;;;;4910322;28;86474;-69
2022/12/18 06:51:05;;;;;;;23.95;7.35;;;-2.00;93.90;;;;;;4908795;28;86431;-69
2022/12/18 06:53:32;;;;;;;23.25;7.45;;;-2.10;94.00;;;;;;4910452;28;86526;-70
2022/12/18 06:56:03;;;;;;;24.05;7.25;;;-2.00;94.00;;;;;;4915368;28;89049;-70
2022/12/18 06:58:28;;;;;;;19.42;6.65;;;-2.00;94.10;;;;;;4915623;28;88185;-71
2022/12/18 07:01:00;;;;;;;22.48;8.10;;;-1.90;94.20;;;;;;4905847;28;87935;-69
2022/12/18 07:03:25;;;;;;;23.33;6.53;;;-1.80;93.70;;;;;;4910969;28;87026;-68
2022/12/18 07:05:51;;;;;;;24.08;7.88;;;-1.80;93.60;;;;;;4910445;28;87276;-69
2022/12/18 07:08:17;;;;;;;26.15;8.27;;;-1.70;94.00;;;;;;4904512;28;87361;-69
2022/12/18 07:10:43;;;;;;;26.67;8.43;;;-1.70;93.70;;;;;;4904627;28;86801;-70
2022/12/18 07:13:09;;;;;;;26.95;8.40;;;-1.60;93.70;;;;;;4914970;28;86348;-70
2022/12/18 07:15:35;;;;;;;25.02;8.70;;;-1.60;93.70;;;;;;4906075;28;86170;-70
2022/12/18 07:18:00;;;;;;;26.48;7.70;;;-1.60;93.60;;;;;;4906299;28;87248;-70
2022/12/18 07:20:26;;;;;;;30.40;9.27;;;-1.50;93.30;;;;;;4908188;28;86759;-70
2022/12/18 07:22:51;;;;;;;28.15;8.23;;;-1.50;93.20;;;;;;4911854;28;87385;-69
2022/12/18 07:25:17;;;;;;;29.60;8.60;;;-1.40;93.40;;;;;;4905384;28;86570;-70
2022/12/18 07:27:43;;;;;;;29.15;9.38;;;-1.40;93.20;;;;;;4907363;28;86690;-70
2022/12/18 07:30:09;;;;;;;30.70;9.60;;;-1.40;93.20;;;;;;4904112;28;89268;-69
2022/12/18 07:32:35;;;;;;;26.20;8.27;;;-1.40;93.10;;;;;;4908770;28;86969;-70
2022/12/18 07:35:00;;;;;;;25.17;7.82;;;-1.50;93.00;;;;;;4911286;28;86659;-70
2022/12/18 07:37:26;;;;;;;22.75;7.20;;;-1.50;93.20;;;;;;4905268;28;87466;-70
2022/12/18 07:39:52;;;;;;;22.48;8.00;;;-1.50;93.40;;;;;;4909058;28;86445;-70
2022/12/18 07:42:32;;;;;;;23.88;8.05;;;-1.40;93.20;;;;;;4908490;28;86292;-69
2022/12/18 07:45:00;;;;;;;22.52;7.53;;;-1.30;92.70;;;;;;4906953;28;86788;-69
2022/12/18 07:47:25;;;;;;;28.15;8.82;;;-1.20;92.80;;;;;;4909662;28;88114;-69
2022/12/18 07:49:51;;;;;;;24.13;9.10;;;-1.10;92.50;;;;;;4908029;28;87922;-69
2022/12/18 07:52:17;;;;;;;26.88;8.07;;;-1.10;92.20;;;;;;4904836;28;87058;-70
2022/12/18 07:54:43;;;;;;;25.85;8.98;;;-1.10;92.70;;;;;;4907687;28;86983;-70
2022/12/18 07:57:09;;;;;;;25.40;8.38;;;-1.10;92.70;;;;;;4905224;28;86786;-71
2022/12/18 07:59:34;;;;;;;23.73;7.78;;;-1.00;92.70;;;;;;4905612;28;87006;-69
2022/12/18 08:02:00;;;;;;;22.90;7.50;;;-0.90;92.10;;;;;;4904199;28;88261;-70
2022/12/18 08:04:26;;;;;;;22.30;7.20;;;-0.90;92.20;;;;;;4901648;28;87558;-68
2022/12/18 08:06:52;;;;;;;18.88;6.32;;;-0.90;91.90;;;;;;4905385;28;86803;-69
2022/12/18 08:09:18;;;;;;;20.65;6.60;;;-0.90;92.20;;;;;;4901903;28;86915;-70
2022/12/18 08:11:44;;;;;;;21.88;6.88;;;-0.80;92.00;;;;;;4909672;28;87254;-69
2022/12/18 08:14:09;;;;;;;21.45;7.00;;;-0.80;91.80;;;;;;4908153;28;86936;-70
2022/12/18 08:16:36;;;;;;;22.50;7.00;;;-0.80;92.40;;;;;;4908232;28;87095;-69
2022/12/18 08:19:02;;;;;;;21.60;7.15;;;-0.70;92.50;;;;;;4904429;28;87069;-69
2022/12/18 08:21:29;;;;;;;22.98;7.15;;;-0.50;91.70;;;;;;4903928;28;86973;-69
2022/12/18 08:23:57;;;;;;;24.90;8.55;;;-0.50;91.40;;;;;;4911738;28;86344;-69
2022/12/18 08:26:25;;;;;;;25.15;8.63;;;-0.60;91.40;;;;;;4905737;28;88601;-69
2022/12/18 08:28:51;;;;;;;25.88;8.30;;;-0.70;91.60;;;;;;4909581;28;89820;-70
2022/12/18 08:31:17;;;;;;;27.88;8.52;;;-0.70;91.60;;;;;;4903974;28;86906;-69
2022/12/18 08:33:43;;;;;;;24.10;8.65;;;-0.70;91.60;;;;;;4905840;28;87079;-69
2022/12/18 08:36:09;;;;;;;27.63;8.85;;;-0.70;92.00;;;;;;4909833;28;88643;-70
2022/12/18 08:38:35;;;;;;;25.92;8.77;;;-0.60;91.40;;;;;;4906239;28;87291;-69
2022/12/18 08:41:06;;;;;;;25.10;8.77;;;-0.60;91.70;;;;;;4911409;28;86892;-70
2022/12/18 08:46:18;;;;;;;29.02;8.48;;;-0.50;91.70;;;;;;4903749;28;86984;-70
2022/12/18 08:48:44;;;;;;;23.83;8.30;;;-0.40;91.00;;;;;;4904689;28;87028;-69
2022/12/18 08:51:10;;;;;;;23.88;8.20;;;-0.30;91.00;;;;;;4907757;28;87259;-70
2022/12/18 08:53:36;;;;;;;24.02;8.13;;;-0.30;90.90;;;;;;4913426;28;86941;-70
2022/12/18 08:56:03;;;;;;;22.67;8.18;;;-0.10;90.80;;;;;;4911342;28;86834;-71
2022/12/18 08:58:28;;;;;;;20.65;7.63;;;0.10;90.70;;;;;;4909456;28;86688;-70
2022/12/18 09:00:59;;;;;;;21.73;7.90;;;0.30;90.40;;;;;;4901143;28;88095;-69
2022/12/18 09:03:24;;;;;;;22.48;7.80;;;0.70;89.10;;;;;;4907684;28;86994;-69
2022/12/18 09:05:50;;;;;;;22.10;7.75;;;1.30;88.70;;;;;;4913087;28;87387;-69
2022/12/18 09:08:16;;;;;;;19.08;7.80;;;1.90;84.90;;;;;;4911508;28;86977;-70
2022/12/18 09:10:45;;;;;;;19.17;7.60;;;2.40;81.70;;;;;;4909533;28;87064;-70
2022/12/18 09:13:12;;;;;;;19.23;7.63;;;2.70;80.30;;;;;;4914467;28;86941;-69
2022/12/18 09:15:46;;;;;;;22.75;8.68;;;2.90;80.00;;;;;;4916932;28;86830;-70
2022/12/18 09:18:13;;;;;;;20.50;7.53;;;3.20;78.10;;;;;;4917890;28;86411;-71
2022/12/18 09:20:39;;;;;;;18.63;8.27;;;3.60;76.20;;;;;;4923516;28;86995;-70
2022/12/18 09:23:06;;;;;;;20.98;8.25;;;3.80;76.50;;;;;;4923021;28;86296;-70
2022/12/18 09:25:33;;;;;;;20.25;8.18;;;3.80;74.70;;;;;;4920888;28;88765;-69
2022/12/18 09:28:16;;;;;;;17.25;7.60;;;3.60;74.60;;;;;;4920677;28;87928;-70
2022/12/18 09:30:48;;;;;;;19.13;7.47;;;3.30;75.50;;;;;;4923090;28;86651;-70
2022/12/18 09:33:14;;;;;;;21.17;8.02;;;3.20;75.20;;;;;;4919246;28;86745;-69
2022/12/18 09:35:42;;;;;;;18.98;7.57;;;2.90;77.10;;;;;;4917167;28;88276;-70
2022/12/18 09:38:12;;;;;;;20.63;8.57;;;2.70;76.80;;;;;;4919344;28;87974;-70
2022/12/18 09:40:44;;;;;;;21.10;7.97;;;2.50;78.40;;;;;;4918356;28;86803;-71
2022/12/18 09:43:20;;;;;;;20.50;8.40;;;2.40;77.10;;;;;;4914203;28;87514;-71
2022/12/18 09:45:51;;;;;;;23.48;8.07;;;2.10;79.10;;;;;;4907277;28;87273;-71
2022/12/18 09:48:25;;;;;;;19.75;7.88;;;2.00;80.30;;;;;;4908424;28;86394;-71
2022/12/18 09:50:55;;;;;;;21.73;7.45;;;2.00;80.60;;;;;;4916153;28;87331;-71
2022/12/18 09:53:27;;;;;;;26.48;7.95;;;2.00;81.40;;;;;;4913403;28;86780;-71
2022/12/18 09:55:54;;;;;;;19.50;7.97;;;2.20;89.40;;;;;;4911415;28;86504;-70
2022/12/18 09:58:37;;;;;;;20.63;8.18;;;2.40;81.50;;;;;;4911192;28;86924;-70
2022/12/18 10:01:18;;;;;;;23.73;8.30;;;2.40;79.40;;;;;;4911729;28;86774;-70
2022/12/18 10:03:43;;;;;;;23.10;8.18;;;2.30;79.00;;;;;;4913866;28;87323;-70
2022/12/18 10:06:27;;;;;;;21.80;7.82;;;2.10;79.70;;;;;;4922621;28;86675;-71
2022/12/18 10:08:56;;;;;;;21.33;7.65;;;1.90;80.60;;;;;;4923331;28;87140;-70
2022/12/18 10:11:40;;;;;;;20.65;7.38;;;1.80;81.20;;;;;;4921939;28;86894;-70
2022/12/18 10:14:34;;;;;;;20.27;7.65;;;1.70;81.00;;;;;;4918459;28;86810;-70
2022/12/18 10:17:17;;;;;;;21.35;7.97;;;1.50;82.50;;;;;;4917955;28;87558;-70
2022/12/18 10:20:18;;;;;;;20.63;8.50;;;1.60;81.70;;;;;;4921518;28;87177;-70
2022/12/18 10:23:07;;;;;;;21.92;7.60;;;1.70;80.90;;;;;;4919073;28;86269;-71
2022/12/18 10:25:36;;;;;;;23.25;8.13;;;1.60;82.30;;;;;;4911245;28;87052;-70
2022/12/18 10:28:12;;;;;;;24.02;8.40;;;1.80;81.50;;;;;;4918052;28;87766;-70
2022/12/18 10:30:39;;;;;;;22.83;8.48;;;1.90;81.00;;;;;;4914844;28;86787;-71
2022/12/18 10:33:05;;;;;;;21.75;8.15;;;2.00;81.00;;;;;;4920022;28;86363;-71
2022/12/18 10:35:31;;;;;;;26.48;9.63;;;2.00;80.40;;;;;;4911835;28;86626;-71
2022/12/18 10:38:22;;;;;;;23.45;8.52;;;1.90;80.30;;;;;;4913737;28;86695;-71
2022/12/18 10:41:17;;;;;;;23.10;7.80;;;1.90;80.80;;;;;;4909592;28;86329;-71
2022/12/18 10:43:42;;;;;;;23.88;8.38;;;1.90;80.80;;;;;;4898704;28;88737;-71
2022/12/18 10:46:08;;;;;;;21.95;9.00;;;2.00;80.80;;;;;;4912697;28;87076;-71
2022/12/18 10:48:41;;;;;;;26.27;8.82;;;2.00;80.80;;;;;;4916953;28;87416;-71
2022/12/18 10:51:08;;;;;;;25.20;8.57;;;2.20;80.50;;;;;;4909995;28;87665;-70
2022/12/18 10:53:36;;;;;;;25.88;9.00;;;2.20;79.50;;;;;;4908087;28;87074;-71
2022/12/18 10:56:04;;;;;;;24.83;9.05;;;2.20;79.80;;;;;;4915766;28;87068;-70
2022/12/18 10:58:32;;;;;;;28.17;9.65;;;2.30;79.70;;;;;;4917656;28;87378;-71
2022/12/18 11:01:19;;;;;;;26.73;9.63;;;2.40;79.30;;;;;;4918719;28;86260;-70
2022/12/18 11:03:55;;;;;;;23.17;8.98;;;2.60;79.00;;;;;;4910789;28;86647;-70
2022/12/18 11:06:24;;;;;;;27.23;9.80;;;2.70;78.20;;;;;;4918064;28;86373;-71
2022/12/18 11:09:18;;;;;;;25.58;9.40;;;2.80;78.00;;;;;;4914958;28;88192;-72
2022/12/18 11:11:53;;;;;;;29.10;9.32;;;3.00;78.00;;;;;;4914570;28;87113;-71
2022/12/18 11:14:33;;;;;;;30.02;9.75;;;3.00;76.80;;;;;;4912317;28;86827;-70
2022/12/18 11:17:00;;;;;;;27.75;9.73;;;3.20;76.30;;;;;;4914278;28;87003;-70
2022/12/18 11:19:40;;;;;;;24.73;9.30;;;3.10;76.50;;;;;;4903129;28;87959;-71
2022/12/18 11:22:32;;;;;;;27.23;10.05;;;3.00;76.60;;;;;;4912482;28;86583;-70
2022/12/18 11:24:59;;;;;;;26.10;9.93;;;2.90;77.40;;;;;;4908000;28;87088;-70
2022/12/18 11:27:26;;;;;;;25.35;9.63;;;2.90;77.50;;;;;;4910537;28;86609;-68
2022/12/18 11:29:52;;;;;;;28.58;10.18;;;3.00;77.60;;;;;;4914452;28;87082;-69
2022/12/18 11:32:37;;;;;;;26.95;10.20;;;3.00;77.80;;;;;;4913985;28;87722;-68
2022/12/18 11:35:35;;;;;;;25.95;10.30;;;3.00;76.70;;;;;;4905201;28;87764;-71
2022/12/18 11:38:26;;;;;;;29.23;9.90;;;3.10;77.30;;;;;;4905918;28;86733;-70
2022/12/18 11:41:04;;;;;;;26.38;9.95;;;3.10;77.20;;;;;;4903522;28;87285;-70
2022/12/18 11:43:54;;;;;;;28.15;10.18;;;3.30;77.30;;;;;;4904617;28;86720;-68
2022/12/18 11:46:37;;;;;;;27.95;10.02;;;3.30;77.30;;;;;;4912917;28;86683;-69
2022/12/18 11:49:30;;;;;;;24.58;9.40;;;3.30;76.80;;;;;;4913575;28;87336;-69
2022/12/18 11:52:21;;;;;;;26.52;9.20;;;3.40;76.00;;;;;;4912587;28;87629;-69
2022/12/18 11:54:50;;;;;;;29.33;9.40;;;3.30;76.00;;;;;;4908886;28;87306;-68
2022/12/18 11:57:36;;;;;;;23.25;8.95;;;3.40;76.40;;;;;;4907986;28;88089;-69
2022/12/18 12:00:02;;;;;;;25.90;10.05;;;3.40;75.70;;;;;;4903694;28;86697;-69
2022/12/18 12:02:46;;;;;;;32.53;11.65;;;3.50;76.50;;;;;;4910647;28;88273;-68
2022/12/18 12:05:24;;;;;;;25.25;9.52;;;3.50;76.90;;;;;;4907074;28;88083;-69
2022/12/18 12:08:11;;;;;;;33.10;12.70;;;3.60;76.10;;;;;;4914952;28;86494;-69
2022/12/18 12:11:06;;;;;;;24.92;9.38;;;3.60;76.90;;;;;;4899981;28;86963;-67
2022/12/18 12:13:46;;;;;;;24.33;8.95;;;3.60;76.40;;;;;;4908882;28;87588;-68
2022/12/18 12:16:22;;;;;;;23.60;8.38;;;3.30;76.70;;;;;;4902142;28;88250;-68
2022/12/18 12:19:07;;;;;;;25.75;8.90;;;3.20;75.80;;;;;;4903823;28;86748;-70
2022/12/18 12:21:36;;;;;;;24.27;9.40;;;3.00;76.50;;;;;;4906906;28;86457;-69
2022/12/18 12:24:33;;;;;;;22.73;8.88;;;3.00;76.70;;;;;;4912779;28;87347;-69
2022/12/18 12:27:17;;;;;;;23.27;7.78;;;3.00;76.00;;;;;;4908827;28;86729;-69
2022/12/18 12:30:04;;;;;;;26.65;9.23;;;2.90;76.70;;;;;;4909497;28;88103;-70
2022/12/18 12:32:59;;;;;;;26.80;9.55;;;2.70;77.90;;;;;;4906533;28;86706;-69
2022/12/18 12:35:30;;;;;;;25.40;9.32;;;2.60;77.80;;;;;;4910954;28;87322;-68
2022/12/18 12:38:04;;;;;;;25.98;9.73;;;2.50;78.70;;;;;;4900646;28;87018;-68
2022/12/18 12:40:34;;;;;;;26.48;9.05;;;2.50;78.90;;;;;;4914292;28;87680;-69
2022/12/18 12:43:40;;;;;;;29.05;9.80;;;2.60;78.30;;;;;;4903963;28;86698;-69
2022/12/18 12:46:08;;;;;;;30.67;9.23;;;2.60;78.40;;;;;;4913367;28;86952;-68
2022/12/18 12:48:55;;;;;;;24.95;8.63;;;2.70;78.00;;;;;;4907333;28;87083;-68
2022/12/18 12:51:25;;;;;;;22.42;8.75;;;2.70;77.60;;;;;;4906151;28;86758;-68
2022/12/18 12:53:53;;;;;;;26.65;9.52;;;2.60;78.00;;;;;;4910626;28;87011;-70
2022/12/18 12:56:21;;;;;;;25.73;9.07;;;2.60;77.30;;;;;;4907087;28;88214;-69
2022/12/18 12:59:04;;;;;;;27.17;9.90;;;2.40;77.90;;;;;;4913804;28;88228;-69
2022/12/18 13:01:56;;;;;;;24.45;9.55;;;2.40;78.20;;;;;;4912555;28;86740;-69
2022/12/18 13:04:30;;;;;;;21.98;8.52;;;2.40;78.30;;;;;;4909445;28;86807;-69
2022/12/18 13:07:30;;;;;;;25.27;8.80;;;2.40;78.80;;;;;;4907686;28;86782;-69
2022/12/18 13:10:22;;;;;;;22.02;8.40;;;2.40;78.20;;;;;;4909254;28;87494;-69
2022/12/18 13:13:01;;;;;;;29.20;7.97;;;2.40;79.30;;;;;;4914056;28;86744;-69
2022/12/18 13:15:30;;;;;;;23.58;8.63;;;2.50;78.40;;;;;;4910120;28;85614;-67
2022/12/18 13:18:08;;;;;;;27.63;8.75;;;2.40;78.20;;;;;;4908154;28;87098;-69
2022/12/18 13:20:44;;;;;;;25.40;9.00;;;2.40;77.80;;;;;;4906358;28;87744;-68
2022/12/18 13:23:24;;;;;;;29.83;9.60;;;2.30;78.80;;;;;;4910303;28;87931;-69
2022/12/18 13:25:51;;;;;;;28.42;8.27;;;2.40;78.40;;;;;;4909287;28;86742;-70
2022/12/18 13:28:24;;;;;;;23.40;8.35;;;2.40;79.30;;;;;;4909594;28;86835;-68
2022/12/18 13:30:57;;;;;;;24.83;9.38;;;2.30;79.60;;;;;;4912053;28;87671;-68
2022/12/18 13:33:27;;;;;;;27.00;8.68;;;2.20;79.70;;;;;;4912739;28;86805;-69
2022/12/18 13:36:02;;;;;;;26.23;8.95;;;2.30;80.80;;;;;;4909743;28;86885;-68
2022/12/18 13:38:36;;;;;;;23.92;8.45;;;2.30;79.20;;;;;;4911533;28;87213;-68
2022/12/18 13:41:18;;;;;;;24.60;8.82;;;2.40;79.30;;;;;;4902394;28;88714;-68
2022/12/18 13:43:52;;;;;;;26.20;9.35;;;2.30;79.70;;;;;;4882171;28;87141;-69
2022/12/18 13:46:18;;;;;;;30.20;9.85;;;2.30;80.40;;;;;;4902988;28;88015;-68
2022/12/18 13:48:50;;;;;;;27.55;9.90;;;2.30;79.70;;;;;;4900448;28;88295;-72
2022/12/18 13:51:19;;;;;;;25.83;9.77;;;2.40;79.90;;;;;;4902859;28;88103;-70
2022/12/18 13:53:50;;;;;;;29.75;10.35;;;2.40;79.90;;;;;;4907592;28;86853;-70
2022/12/18 13:56:25;;;;;;;31.38;10.18;;;2.40;80.00;;;;;;4905370;28;86797;-70
2022/12/18 13:59:09;;;;;;;27.52;10.10;;;2.30;80.10;;;;;;4910296;28;87510;-70
2022/12/18 14:01:35;;;;;;;29.90;10.25;;;2.30;79.50;;;;;;4913302;28;86977;-70
2022/12/18 14:04:31;;;;;;;31.25;11.43;;;2.30;79.10;;;;;;4914450;28;86877;-70
2022/12/18 14:07:10;;;;;;;28.20;10.35;;;2.20;79.90;;;;;;4908311;28;85692;-70
2022/12/18 14:09:49;;;;;;;28.67;10.57;;;2.20;80.70;;;;;;4905984;28;88054;-71
2022/12/18 14:15:34;;;;;;;27.85;9.80;;;2.30;80.10;;;;;;4913062;28;87158;-70
2022/12/18 14:18:14;;;;;;;25.92;9.35;;;2.20;80.80;;;;;;4908783;28;86785;-69
2022/12/18 14:20:47;;;;;;;28.80;9.88;;;2.30;80.30;;;;;;4910319;28;86720;-70
2022/12/18 14:23:35;;;;;;;29.10;9.70;;;2.20;80.30;;;;;;4912033;28;88395;-68
2022/12/18 14:26:03;;;;;;;28.48;10.07;;;2.10;81.10;;;;;;4913420;28;86637;-68
2022/12/18 14:28:29;;;;;;;30.95;10.07;;;2.00;80.40;;;;;;4914437;28;86872;-70
2022/12/18 14:30:56;;;;;;;29.67;9.02;;;2.00;80.80;;;;;;4905645;28;87360;-70
2022/12/18 14:33:27;;;;;;;30.95;9.85;;;2.00;81.10;;;;;;4906711;28;86508;-69
2022/12/18 14:36:04;;;;;;;28.90;9.77;;;1.90;80.30;;;;;;4900197;28;86759;-71
2022/12/18 14:38:40;;;;;;;26.75;8.43;;;1.70;80.70;;;;;;4916825;28;86952;-70
2022/12/18 14:41:14;;;;;;;29.27;8.98;;;1.60;81.10;;;;;;4914718;28;87674;-70
2022/12/18 14:43:42;;;;;;;31.13;11.05;;;1.60;80.90;;;;;;4911257;28;88088;-69
2022/12/18 14:46:37;;;;;;;26.98;9.50;;;1.40;81.80;;;;;;4915600;28;87570;-70
2022/12/18 14:49:17;;;;;;;26.80;8.82;;;1.40;82.30;;;;;;4908503;28;88128;-69
2022/12/18 14:51:57;;;;;;;25.55;9.60;;;1.30;82.00;;;;;;4912040;28;87139;-70
2022/12/18 14:54:24;;;;;;;26.67;9.18;;;1.20;82.30;;;;;;4916740;28;87084;-70
2022/12/18 14:56:59;;;;;;;29.67;9.10;;;1.30;82.60;;;;;;4914622;28;88112;-68
2022/12/18 14:59:26;;;;;;;25.55;9.05;;;1.20;82.70;;;;;;4909323;28;87376;-70
2022/12/18 15:02:21;;;;;;;23.80;8.75;;;1.10;83.20;;;;;;4913878;28;86562;-70
2022/12/18 15:04:47;;;;;;;25.05;8.30;;;1.10;83.00;;;;;;4903784;28;88107;-69
2022/12/18 15:07:21;;;;;;;24.77;8.38;;;1.00;83.90;;;;;;4914807;28;88044;-69
2022/12/18 15:10:02;;;;;;;25.35;8.63;;;1.00;83.80;;;;;;4909866;28;86683;-70
2022/12/18 15:12:41;;;;;;;23.42;8.10;;;1.00;84.30;;;;;;4920095;28;87440;-69
2022/12/18 15:18:14;;;;;;;30.38;9.02;;;0.60;85.10;;;;;;4909691;28;87241;-71
2022/12/18 15:20:49;;;;;;;27.13;9.00;;;0.50;86.00;;;;;;4916895;28;87423;-69
2022/12/18 15:23:15;;;;;;;23.73;8.20;;;0.40;86.30;;;;;;4911098;28;86693;-68
2022/12/18 15:25:40;;;;;;;29.60;9.00;;;0.30;86.70;;;;;;4916926;28;87000;-70
2022/12/18 15:28:31;;;;;;;26.58;8.50;;;0.30;87.20;;;;;;4914867;28;86887;-70
2022/12/18 15:31:05;;;;;;;28.02;9.38;;;0.30;86.80;;;;;;4917370;28;86364;-69
2022/12/18 15:33:43;;;;;;;33.40;9.77;;;0.20;87.50;;;;;;4914359;28;88072;-69
2022/12/18 15:36:15;;;;;;;31.70;10.93;;;0.20;87.80;;;;;;4910580;28;87965;-69
2022/12/18 15:38:40;;;;;;;24.90;8.75;;;0.10;88.60;;;;;;4909052;28;86320;-69
2022/12/18 15:41:13;;;;;;;27.52;8.82;;;0.10;88.20;;;;;;4912703;28;86299;-68
2022/12/18 15:43:38;;;;;;;24.67;8.30;;;0.10;88.90;;;;;;4914703;28;87254;-69
2022/12/18 15:46:27;;;;;;;29.50;9.07;;;0.10;89.10;;;;;;4906978;28;86907;-69
2022/12/18 15:48:57;;;;;;;26.52;8.90;;;0.10;89.30;;;;;;4911612;28;86984;-68
2022/12/18 15:51:36;;;;;;;27.00;8.73;;;0.10;89.20;;;;;;4920166;28;86044;-67
2022/12/18 15:54:04;;;;;;;26.90;8.48;;;-0.10;89.90;;;;;;4907358;28;86638;-67
2022/12/18 15:59:19;;;;;;;27.05;9.63;;;-0.20;90.10;;;;;;4913462;28;87736;-68
2022/12/18 16:01:48;;;;;;;32.15;10.13;;;-0.30;90.30;;;;;;4910057;28;87796;-70
2022/12/18 16:04:16;;;;;;;29.77;10.25;;;-0.30;90.50;;;;;;4911115;28;87077;-71
2022/12/18 16:06:41;;;;;;;28.35;9.25;;;-0.40;90.50;;;;;;4909678;28;88087;-70
2022/12/18 16:09:08;;;;;;;25.77;8.95;;;-0.50;90.70;;;;;;4907566;28;88024;-72
2022/12/18 16:11:39;;;;;;;26.92;8.73;;;-0.50;90.90;;;;;;4907502;28;86854;-70
2022/12/18 16:14:20;;;;;;;28.02;7.93;;;-0.70;91.20;;;;;;4908420;28;87202;-70
2022/12/18 16:16:48;;;;;;;28.70;8.80;;;-0.70;91.30;;;;;;4898274;28;89188;-71
2022/12/18 16:19:15;;;;;;;24.15;7.68;;;-0.60;91.40;;;;;;4903755;28;86812;-70
2022/12/18 16:21:42;;;;;;;24.55;7.45;;;-0.60;91.30;;;;;;4908838;28;86739;-69
2022/12/18 16:24:36;;;;;;;26.10;7.68;;;-0.60;91.40;;;;;;4910231;28;88133;-70
2022/12/18 16:27:01;;;;;;;27.30;8.27;;;-0.70;91.40;;;;;;4906989;28;87860;-70
2022/12/18 16:29:28;;;;;;;22.38;7.97;;;-0.70;91.40;;;;;;4919748;28;87804;-71
2022/12/18 16:31:58;;;;;;;26.92;8.45;;;-0.80;91.60;;;;;;4904295;28;86846;-69
2022/12/18 16:34:29;;;;;;;25.73;8.85;;;-0.90;91.80;;;;;;4908181;28;86603;-69
2022/12/18 16:36:58;;;;;;;27.45;9.65;;;-0.90;92.00;;;;;;4909400;28;87832;-71
2022/12/18 16:39:23;;;;;;;27.77;9.35;;;-1.10;92.30;;;;;;4907251;28;87044;-68
2022/12/18 16:41:49;;;;;;;28.63;9.70;;;-1.20;92.70;;;;;;4908405;28;85919;-69
2022/12/18 16:44:15;;;;;;;33.38;9.73;;;-1.20;93.00;;;;;;4907296;28;86803;-68
2022/12/18 16:46:47;;;;;;;28.33;9.15;;;-1.30;93.20;;;;;;4908845;28;86956;-69
2022/12/18 16:49:17;;;;;;;28.80;9.88;;;-1.30;93.30;;;;;;4910204;28;87288;-68
2022/12/18 16:51:47;;;;;;;27.27;8.88;;;-1.30;93.50;;;;;;4909038;28;87396;-68
2022/12/18 16:54:13;;;;;;;31.13;10.55;;;-1.30;93.80;;;;;;4912671;28;87655;-67
2022/12/18 16:56:38;;;;;;;33.33;10.55;;;-1.40;93.80;;;;;;4908829;28;86976;-68
2022/12/18 16:59:05;;;;;;;34.00;9.45;;;-1.40;94.00;;;;;;4912807;28;86787;-71
2022/12/18 17:01:32;;;;;;;29.05;9.82;;;-1.40;94.20;;;;;;4908003;28;87236;-68
2022/12/18 17:04:01;;;;;;;38.67;15.02;;;-1.40;94.20;;;;;;4907681;28;87099;-68
2022/12/18 17:06:28;;;;;;;40.42;12.63;;;-1.40;94.20;;;;;;4917429;28;86282;-70
2022/12/18 17:08:58;;;;;;;35.70;11.15;;;-1.40;94.40;;;;;;4910179;28;86736;-72
2022/12/18 17:11:26;;;;;;;34.65;11.20;;;-1.40;94.40;;;;;;4907604;28;86346;-71
2022/12/18 17:13:53;;;;;;;30.95;10.55;;;-1.40;94.40;;;;;;4913329;28;89274;-67
2022/12/18 17:16:20;;;;;;;35.92;10.52;;;-1.40;94.40;;;;;;4893420;28;89424;-70
2022/12/18 17:18:47;;;;;;;32.88;10.18;;;-1.40;94.50;;;;;;4909238;28;86884;-68
2022/12/18 17:21:13;;;;;;;31.42;10.80;;;-1.40;94.40;;;;;;4907171;28;88571;-69
2022/12/18 17:23:41;;;;;;;32.95;9.88;;;-1.30;94.40;;;;;;4913129;28;88421;-69
2022/12/18 17:26:09;;;;;;;32.83;10.48;;;-1.20;94.40;;;;;;4907526;28;87048;-70
2022/12/18 17:28:35;;;;;;;33.83;10.77;;;-1.10;94.00;;;;;;4924225;28;86594;-66
2022/12/18 17:31:13;;;;;;;36.60;11.50;;;-1.00;93.80;;;;;;4910924;28;86889;-66
2022/12/18 17:33:39;;;;;;;34.35;10.80;;;-0.90;94.00;;;;;;4932980;28;86893;-68
2022/12/18 17:36:05;;;;;;;34.70;11.52;;;-0.90;93.50;;;;;;4892892;28;87472;-67
2022/12/18 17:38:32;;;;;;;36.58;11.32;;;-0.80;93.30;;;;;;4898372;28;87763;-66
2022/12/18 17:41:05;;;;;;;33.75;11.93;;;-0.70;93.40;;;;;;4911090;28;86515;-68
2022/12/18 17:43:34;;;;;;;37.03;11.23;;;-0.70;92.90;;;;;;4915511;28;86940;-69
2022/12/18 17:46:04;;;;;;;38.00;11.25;;;-0.70;92.80;;;;;;4894907;28;87102;-70
2022/12/18 17:48:32;;;;;;;32.17;11.68;;;-0.70;92.90;;;;;;4907313;28;86508;-69
2022/12/18 17:51:03;;;;;;;32.25;11.07;;;-0.60;93.10;;;;;;4913676;28;88290;-69
2022/12/18 17:53:30;;;;;;;36.38;11.73;;;-0.50;92.60;;;;;;4914793;28;86796;-67
2022/12/18 17:55:58;;;;;;;32.83;11.98;;;-0.50;92.40;;;;;;4894584;28;87574;-68
2022/12/18 17:58:26;;;;;;;36.92;11.63;;;-0.50;92.40;;;;;;4916001;28;86776;-69
2022/12/18 18:00:53;;;;;;;34.10;12.23;;;-0.50;92.40;;;;;;4918346;28;86583;-69
2022/12/18 18:03:19;;;;;;;32.83;11.25;;;-0.50;92.40;;;;;;4911097;28;88233;-68
2022/12/18 18:05:44;;;;;;;34.22;12.00;;;-0.50;92.50;;;;;;4908658;28;87228;-68
2022/12/18 18:08:10;;;;;;;35.00;11.90;;;-0.40;92.60;;;;;;4910851;28;86847;-68
2022/12/18 18:10:37;;;;;;;34.50;11.77;;;-0.30;92.40;;;;;;4914785;28;88519;-68
2022/12/18 18:15:56;;;;;;;32.60;11.02;;;-0.30;92.20;;;;;;4912761;28;86520;-68
2022/12/18 18:18:22;;;;;;;35.03;11.93;;;-0.20;91.90;;;;;;4906215;28;88524;-68